sensor_id;sensor_type;location;lat;lon;timestamp;P1;P2;P0
62631;PMS5003;48703;51.248;-0.546;2023-04-29T00:02:44;33.76;29.76;
62631;PMS5003;48703;51.248;-0.546;2023-04-29T00:05:45;29.43;26.91;
62631;PMS5003;48703;51.248;-0.546;2023-04-29T00:08:47;32.75;29.35;
62631;PMS5003;48703;51.248;-0.546;2023-04-29T00:11:49;30.19;26.26;
62631;PMS5003;48703;51.248;-0.546;2023-04-29T00:14:50;34.69;30.90;
62631;PMS5003;48703;51.248;-0.546;2023-04-29T00:17:51;33.12;27.88;
62631;PMS5003;48703;51.248;-0.546;2023-04-29T00:20:53;32.16;27.46;
62631;PMS5003;48703;51.248;-0.546;2023-04-29T00:23:54;31.19;28.96;
62631;PMS5003;48703;51.248;-0.546;2023-04-29T00:26:54;35.04;32.17;
62631;PMS5003;48703;51.248;-0.546;2023-04-29T00:29:56;33.54;28.86;
62631;PMS5003;48703;51.248;-0.546;2023-04-29T00:32:57;34.22;30.51;
62631;PMS5003;48703;51.248;-0.546;2023-04-29T00:35:59;31.71;29.94;
62631;PMS5003;48703;51.248;-0.546;2023-04-29T00:39:00;33.62;29.85;
62631;PMS5003;48703;51.248;-0.546;2023-04-29T00:42:02;27.77;26.87;
62631;PMS5003;48703;51.248;-0.546;2023-04-29T00:45:03;28.51;27.25;
62631;PMS5003;48703;51.248;-0.546;2023-04-29T00:48:05;32.28;29.19;
62631;PMS5003;48703;51.248;-0.546;2023-04-29T00:51:06;33.13;28.91;
62631;PMS5003;48703;51.248;-0.546;2023-04-29T00:54:07;35.37;30.94;
62631;PMS5003;48703;51.248;-0.546;2023-04-29T00:57:09;34.17;30.28;
62631;PMS5003;48703;51.248;-0.546;2023-04-29T01:00:10;34.30;29.62;
62631;PMS5003;48703;51.248;-0.546;2023-04-29T01:03:11;32.07;28.71;
62631;PMS5003;48703;51.248;-0.546;2023-04-29T01:06:15;30.26;27.84;
62631;PMS5003;48703;51.248;-0.546;2023-04-29T01:09:16;29.84;27.72;
62631;PMS5003;48703;51.248;-0.546;2023-04-29T01:12:16;35.24;30.41;
62631;PMS5003;48703;51.248;-0.546;2023-04-29T01:15:17;32.68;29.35;
62631;PMS5003;48703;51.248;-0.546;2023-04-29T01:18:18;33.72;29.88;
62631;PMS5003;48703;51.248;-0.546;2023-04-29T01:21:19;29.29;26.43;
62631;PMS5003;48703;51.248;-0.546;2023-04-29T01:24:20;32.71;29.00;
62631;PMS5003;48703;51.248;-0.546;2023-04-29T01:27:24;35.30;29.70;
62631;PMS5003;48703;51.248;-0.546;2023-04-29T01:30:26;31.77;28.23;
62631;PMS5003;48703;51.248;-0.546;2023-04-29T01:33:28;32.80;28.75;
62631;PMS5003;48703;51.248;-0.546;2023-04-29T01:36:28;32.01;27.96;
62631;PMS5003;48703;51.248;-0.546;2023-04-29T01:39:30;33.67;31.47;
62631;PMS5003;48703;51.248;-0.546;2023-04-29T01:42:33;29.63;28.67;
62631;PMS5003;48703;51.248;-0.546;2023-04-29T01:45:33;30.80;27.49;
62631;PMS5003;48703;51.248;-0.546;2023-04-29T01:48:34;31.50;28.84;
62631;PMS5003;48703;51.248;-0.546;2023-04-29T01:51:36;34.15;30.99;
62631;PMS5003;48703;51.248;-0.546;2023-04-29T01:54:37;31.82;29.31;
62631;PMS5003;48703;51.248;-0.546;2023-04-29T01:57:39;31.74;27.30;
62631;PMS5003;48703;51.248;-0.546;2023-04-29T02:00:40;30.04;28.57;
62631;PMS5003;48703;51.248;-0.546;2023-04-29T02:03:42;33.09;30.09;
62631;PMS5003;48703;51.248;-0.546;2023-04-29T02:06:44;30.38;28.43;
62631;PMS5003;48703;51.248;-0.546;2023-04-29T02:09:45;33.19;31.94;
62631;PMS5003;48703;51.248;-0.546;2023-04-29T02:12:47;30.73;26.91;
62631;PMS5003;48703;51.248;-0.546;2023-04-29T02:15:48;32.22;29.28;
62631;PMS5003;48703;51.248;-0.546;2023-04-29T02:18:50;35.77;30.84;
62631;PMS5003;48703;51.248;-0.546;2023-04-29T02:21:52;31.09;28.17;
62631;PMS5003;48703;51.248;-0.546;2023-04-29T02:24:53;32.82;28.88;
62631;PMS5003;48703;51.248;-0.546;2023-04-29T02:27:55;29.99;28.03;
62631;PMS5003;48703;51.248;-0.546;2023-04-29T02:30:56;33.13;30.00;
62631;PMS5003;48703;51.248;-0.546;2023-04-29T02:33:59;35.06;31.09;
62631;PMS5003;48703;51.248;-0.546;2023-04-29T02:36:59;36.56;32.46;
62631;PMS5003;48703;51.248;-0.546;2023-04-29T02:40:01;36.43;31.93;
62631;PMS5003;48703;51.248;-0.546;2023-04-29T02:43:03;33.29;30.57;
62631;PMS5003;48703;51.248;-0.546;2023-04-29T02:46:04;35.72;32.41;
62631;PMS5003;48703;51.248;-0.546;2023-04-29T02:49:05;35.17;32.04;
62631;PMS5003;48703;51.248;-0.546;2023-04-29T02:52:07;35.96;31.76;
62631;PMS5003;48703;51.248;-0.546;2023-04-29T02:55:08;36.52;33.91;
62631;PMS5003;48703;51.248;-0.546;2023-04-29T02:58:09;35.17;31.70;
62631;PMS5003;48703;51.248;-0.546;2023-04-29T03:01:10;34.30;31.22;
62631;PMS5003;48703;51.248;-0.546;2023-04-29T03:04:12;34.37;31.24;
62631;PMS5003;48703;51.248;-0.546;2023-04-29T03:07:14;38.97;34.12;
62631;PMS5003;48703;51.248;-0.546;2023-04-29T03:10:15;34.37;31.69;
62631;PMS5003;48703;51.248;-0.546;2023-04-29T03:13:17;37.68;33.29;
62631;PMS5003;48703;51.248;-0.546;2023-04-29T03:16:18;35.30;31.61;
62631;PMS5003;48703;51.248;-0.546;2023-04-29T03:19:19;39.68;34.62;
62631;PMS5003;48703;51.248;-0.546;2023-04-29T03:22:20;39.66;35.43;
62631;PMS5003;48703;51.248;-0.546;2023-04-29T03:25:22;34.80;30.72;
62631;PMS5003;48703;51.248;-0.546;2023-04-29T03:28:24;40.17;35.09;
62631;PMS5003;48703;51.248;-0.546;2023-04-29T03:31:25;37.51;33.85;
62631;PMS5003;48703;51.248;-0.546;2023-04-29T03:34:27;38.26;33.43;
62631;PMS5003;48703;51.248;-0.546;2023-04-29T03:37:29;37.15;32.62;
62631;PMS5003;48703;51.248;-0.546;2023-04-29T03:40:30;37.41;32.28;
62631;PMS5003;48703;51.248;-0.546;2023-04-29T03:43:31;37.62;33.87;
62631;PMS5003;48703;51.248;-0.546;2023-04-29T03:46:32;39.21;33.84;
62631;PMS5003;48703;51.248;-0.546;2023-04-29T03:49:33;38.41;34.57;
62631;PMS5003;48703;51.248;-0.546;2023-04-29T03:52:35;32.20;29.72;
62631;PMS5003;48703;51.248;-0.546;2023-04-29T03:55:37;33.06;29.17;
62631;PMS5003;48703;51.248;-0.546;2023-04-29T03:58:38;37.88;33.82;
62631;PMS5003;48703;51.248;-0.546;2023-04-29T04:01:40;37.45;34.71;
62631;PMS5003;48703;51.248;-0.546;2023-04-29T04:04:41;40.25;33.66;
62631;PMS5003;48703;51.248;-0.546;2023-04-29T04:07:43;39.01;34.38;
62631;PMS5003;48703;51.248;-0.546;2023-04-29T04:10:45;42.01;35.10;
62631;PMS5003;48703;51.248;-0.546;2023-04-29T04:13:47;42.00;36.49;
62631;PMS5003;48703;51.248;-0.546;2023-04-29T04:16:48;41.38;35.42;
62631;PMS5003;48703;51.248;-0.546;2023-04-29T04:19:50;34.99;31.71;
62631;PMS5003;48703;51.248;-0.546;2023-04-29T04:22:51;39.58;35.07;
62631;PMS5003;48703;51.248;-0.546;2023-04-29T04:25:53;39.94;33.80;
62631;PMS5003;48703;51.248;-0.546;2023-04-29T04:28:55;42.44;37.96;
62631;PMS5003;48703;51.248;-0.546;2023-04-29T04:31:56;37.59;33.59;
62631;PMS5003;48703;51.248;-0.546;2023-04-29T04:34:58;38.16;33.62;
62631;PMS5003;48703;51.248;-0.546;2023-04-29T04:38:00;39.96;35.26;
62631;PMS5003;48703;51.248;-0.546;2023-04-29T04:41:04;39.81;36.44;
62631;PMS5003;48703;51.248;-0.546;2023-04-29T04:44:04;41.35;36.87;
62631;PMS5003;48703;51.248;-0.546;2023-04-29T04:47:05;44.24;38.49;
62631;PMS5003;48703;51.248;-0.546;2023-04-29T04:50:07;45.52;40.87;
62631;PMS5003;48703;51.248;-0.546;2023-04-29T04:53:09;44.01;38.16;
62631;PMS5003;48703;51.248;-0.546;2023-04-29T04:56:11;41.93;36.99;
62631;PMS5003;48703;51.248;-0.546;2023-04-29T04:59:11;45.54;38.84;
62631;PMS5003;48703;51.248;-0.546;2023-04-29T05:02:12;46.52;40.10;
62631;PMS5003;48703;51.248;-0.546;2023-04-29T05:05:13;43.53;38.90;
62631;PMS5003;48703;51.248;-0.546;2023-04-29T05:08:15;43.36;36.64;
62631;PMS5003;48703;51.248;-0.546;2023-04-29T05:11:17;41.52;36.19;
62631;PMS5003;48703;51.248;-0.546;2023-04-29T05:14:19;40.72;35.36;
62631;PMS5003;48703;51.248;-0.546;2023-04-29T05:17:20;46.35;38.74;
62631;PMS5003;48703;51.248;-0.546;2023-04-29T05:20:22;43.83;39.33;
62631;PMS5003;48703;51.248;-0.546;2023-04-29T05:23:23;43.07;38.09;
62631;PMS5003;48703;51.248;-0.546;2023-04-29T05:26:25;43.50;38.32;
62631;PMS5003;48703;51.248;-0.546;2023-04-29T05:29:26;41.01;36.69;
62631;PMS5003;48703;51.248;-0.546;2023-04-29T05:32:28;46.23;40.26;
62631;PMS5003;48703;51.248;-0.546;2023-04-29T05:35:29;42.12;37.72;
62631;PMS5003;48703;51.248;-0.546;2023-04-29T05:38:32;46.03;40.65;
62631;PMS5003;48703;51.248;-0.546;2023-04-29T05:41:33;51.51;45.00;
62631;PMS5003;48703;51.248;-0.546;2023-04-29T05:44:34;76.21;67.43;
62631;PMS5003;48703;51.248;-0.546;2023-04-29T05:47:36;86.04;75.38;
62631;PMS5003;48703;51.248;-0.546;2023-04-29T05:50:38;85.59;75.38;
62631;PMS5003;48703;51.248;-0.546;2023-04-29T05:53:39;82.57;73.55;
62631;PMS5003;48703;51.248;-0.546;2023-04-29T05:56:41;119.21;103.87;
62631;PMS5003;48703;51.248;-0.546;2023-04-29T05:59:43;91.01;76.06;
62631;PMS5003;48703;51.248;-0.546;2023-04-29T06:02:45;61.99;53.43;
62631;PMS5003;48703;51.248;-0.546;2023-04-29T06:05:46;103.39;89.76;
62631;PMS5003;48703;51.248;-0.546;2023-04-29T06:08:47;78.72;65.93;
62631;PMS5003;48703;51.248;-0.546;2023-04-29T06:11:48;72.09;62.15;
62631;PMS5003;48703;51.248;-0.546;2023-04-29T06:14:49;60.58;53.06;
62631;PMS5003;48703;51.248;-0.546;2023-04-29T06:17:52;53.75;48.33;
62631;PMS5003;48703;51.248;-0.546;2023-04-29T06:20:53;57.77;48.48;
62631;PMS5003;48703;51.248;-0.546;2023-04-29T06:23:55;55.49;49.04;
62631;PMS5003;48703;51.248;-0.546;2023-04-29T06:26:56;56.31;49.90;
62631;PMS5003;48703;51.248;-0.546;2023-04-29T06:29:58;54.10;48.06;
62631;PMS5003;48703;51.248;-0.546;2023-04-29T06:32:59;55.67;48.36;
62631;PMS5003;48703;51.248;-0.546;2023-04-29T06:36:01;53.54;47.22;
62631;PMS5003;48703;51.248;-0.546;2023-04-29T06:39:02;52.35;45.49;
62631;PMS5003;48703;51.248;-0.546;2023-04-29T06:42:03;49.13;44.93;
62631;PMS5003;48703;51.248;-0.546;2023-04-29T06:45:04;49.00;43.09;
62631;PMS5003;48703;51.248;-0.546;2023-04-29T06:48:06;47.78;41.67;
62631;PMS5003;48703;51.248;-0.546;2023-04-29T06:51:08;50.22;42.56;
62631;PMS5003;48703;51.248;-0.546;2023-04-29T06:54:10;45.16;39.20;
62631;PMS5003;48703;51.248;-0.546;2023-04-29T06:57:12;46.96;40.13;
62631;PMS5003;48703;51.248;-0.546;2023-04-29T07:00:14;40.43;36.45;
62631;PMS5003;48703;51.248;-0.546;2023-04-29T07:03:17;40.17;36.51;
62631;PMS5003;48703;51.248;-0.546;2023-04-29T07:06:18;42.43;37.99;
62631;PMS5003;48703;51.248;-0.546;2023-04-29T07:09:20;43.63;39.01;
62631;PMS5003;48703;51.248;-0.546;2023-04-29T07:12:22;46.10;39.40;
62631;PMS5003;48703;51.248;-0.546;2023-04-29T07:15:23;44.17;40.72;
62631;PMS5003;48703;51.248;-0.546;2023-04-29T07:18:24;45.61;37.26;
62631;PMS5003;48703;51.248;-0.546;2023-04-29T07:21:26;42.03;37.35;
62631;PMS5003;48703;51.248;-0.546;2023-04-29T07:24:27;40.87;36.06;
62631;PMS5003;48703;51.248;-0.546;2023-04-29T07:27:29;40.58;36.62;
62631;PMS5003;48703;51.248;-0.546;2023-04-29T07:30:31;39.82;36.32;
62631;PMS5003;48703;51.248;-0.546;2023-04-29T07:33:32;40.78;34.81;
62631;PMS5003;48703;51.248;-0.546;2023-04-29T07:36:34;41.18;37.31;
62631;PMS5003;48703;51.248;-0.546;2023-04-29T07:39:35;39.24;34.90;
62631;PMS5003;48703;51.248;-0.546;2023-04-29T07:42:37;38.74;34.33;
62631;PMS5003;48703;51.248;-0.546;2023-04-29T07:45:38;38.00;32.99;
62631;PMS5003;48703;51.248;-0.546;2023-04-29T07:48:39;39.62;33.77;
62631;PMS5003;48703;51.248;-0.546;2023-04-29T07:51:41;37.55;33.10;
62631;PMS5003;48703;51.248;-0.546;2023-04-29T07:54:43;37.35;33.80;
62631;PMS5003;48703;51.248;-0.546;2023-04-29T07:57:44;37.00;32.52;
62631;PMS5003;48703;51.248;-0.546;2023-04-29T08:00:45;35.00;31.33;
62631;PMS5003;48703;51.248;-0.546;2023-04-29T08:03:47;34.24;28.83;
62631;PMS5003;48703;51.248;-0.546;2023-04-29T08:06:48;33.39;28.41;
62631;PMS5003;48703;51.248;-0.546;2023-04-29T08:09:49;29.77;27.14;
62631;PMS5003;48703;51.248;-0.546;2023-04-29T08:12:50;30.48;25.59;
62631;PMS5003;48703;51.248;-0.546;2023-04-29T08:15:52;33.66;27.91;
62631;PMS5003;48703;51.248;-0.546;2023-04-29T08:18:54;29.97;26.26;
62631;PMS5003;48703;51.248;-0.546;2023-04-29T08:21:56;28.74;25.84;
62631;PMS5003;48703;51.248;-0.546;2023-04-29T08:24:58;30.52;26.84;
62631;PMS5003;48703;51.248;-0.546;2023-04-29T08:27:59;26.50;24.11;
62631;PMS5003;48703;51.248;-0.546;2023-04-29T08:31:01;25.84;23.86;
62631;PMS5003;48703;51.248;-0.546;2023-04-29T08:34:02;24.67;21.99;
62631;PMS5003;48703;51.248;-0.546;2023-04-29T08:37:03;24.51;21.01;
62631;PMS5003;48703;51.248;-0.546;2023-04-29T08:40:05;24.29;21.88;
62631;PMS5003;48703;51.248;-0.546;2023-04-29T08:43:06;24.87;20.70;
62631;PMS5003;48703;51.248;-0.546;2023-04-29T08:46:08;22.90;21.74;
62631;PMS5003;48703;51.248;-0.546;2023-04-29T08:49:10;24.04;19.36;
62631;PMS5003;48703;51.248;-0.546;2023-04-29T08:52:12;23.03;20.89;
62631;PMS5003;48703;51.248;-0.546;2023-04-29T08:55:13;22.83;19.86;
62631;PMS5003;48703;51.248;-0.546;2023-04-29T08:58:15;24.16;22.22;
62631;PMS5003;48703;51.248;-0.546;2023-04-29T09:01:16;19.90;16.35;
62631;PMS5003;48703;51.248;-0.546;2023-04-29T09:04:20;19.09;16.11;
62631;PMS5003;48703;51.248;-0.546;2023-04-29T09:07:19;21.62;17.86;
62631;PMS5003;48703;51.248;-0.546;2023-04-29T09:10:21;19.45;17.83;
62631;PMS5003;48703;51.248;-0.546;2023-04-29T09:13:23;22.88;19.91;
62631;PMS5003;48703;51.248;-0.546;2023-04-29T09:16:24;20.06;16.51;
62631;PMS5003;48703;51.248;-0.546;2023-04-29T09:19:28;15.97;15.00;
62631;PMS5003;48703;51.248;-0.546;2023-04-29T09:22:26;16.07;15.30;
62631;PMS5003;48703;51.248;-0.546;2023-04-29T09:25:28;16.63;14.91;
62631;PMS5003;48703;51.248;-0.546;2023-04-29T09:28:29;14.73;13.86;
62631;PMS5003;48703;51.248;-0.546;2023-04-29T09:31:31;19.73;17.14;
62631;PMS5003;48703;51.248;-0.546;2023-04-29T09:34:33;20.63;17.83;
62631;PMS5003;48703;51.248;-0.546;2023-04-29T09:37:34;15.96;12.81;
62631;PMS5003;48703;51.248;-0.546;2023-04-29T09:40:36;13.53;12.80;
62631;PMS5003;48703;51.248;-0.546;2023-04-29T09:43:37;11.54;10.76;
62631;PMS5003;48703;51.248;-0.546;2023-04-29T09:46:39;15.87;13.21;
62631;PMS5003;48703;51.248;-0.546;2023-04-29T09:49:40;14.83;13.41;
62631;PMS5003;48703;51.248;-0.546;2023-04-29T09:52:41;14.24;12.09;
62631;PMS5003;48703;51.248;-0.546;2023-04-29T09:55:57;14.71;13.77;
62631;PMS5003;48703;51.248;-0.546;2023-04-29T09:58:44;15.46;12.60;
62631;PMS5003;48703;51.248;-0.546;2023-04-29T10:01:47;15.87;13.84;
62631;PMS5003;48703;51.248;-0.546;2023-04-29T10:04:47;16.83;14.23;
62631;PMS5003;48703;51.248;-0.546;2023-04-29T10:07:48;16.60;15.10;
62631;PMS5003;48703;51.248;-0.546;2023-04-29T10:10:50;14.81;12.86;
62631;PMS5003;48703;51.248;-0.546;2023-04-29T10:13:51;11.69;11.26;
62631;PMS5003;48703;51.248;-0.546;2023-04-29T10:16:53;14.54;11.41;
62631;PMS5003;48703;51.248;-0.546;2023-04-29T10:19:56;11.00;9.67;
62631;PMS5003;48703;51.248;-0.546;2023-04-29T10:22:55;12.59;11.36;
62631;PMS5003;48703;51.248;-0.546;2023-04-29T10:25:58;13.50;12.26;
62631;PMS5003;48703;51.248;-0.546;2023-04-29T10:28:59;14.43;12.26;
62631;PMS5003;48703;51.248;-0.546;2023-04-29T10:32:00;14.35;12.25;
62631;PMS5003;48703;51.248;-0.546;2023-04-29T10:35:02;15.37;13.94;
62631;PMS5003;48703;51.248;-0.546;2023-04-29T10:38:04;12.14;11.04;
62631;PMS5003;48703;51.248;-0.546;2023-04-29T10:41:07;12.03;11.26;
62631;PMS5003;48703;51.248;-0.546;2023-04-29T10:44:07;10.74;10.07;
62631;PMS5003;48703;51.248;-0.546;2023-04-29T10:47:24;12.60;11.59;
62631;PMS5003;48703;51.248;-0.546;2023-04-29T10:50:10;10.96;10.06;
62631;PMS5003;48703;51.248;-0.546;2023-04-29T10:53:11;11.56;9.77;
62631;PMS5003;48703;51.248;-0.546;2023-04-29T10:56:12;12.77;12.29;
62631;PMS5003;48703;51.248;-0.546;2023-04-29T10:59:14;12.70;11.11;
62631;PMS5003;48703;51.248;-0.546;2023-04-29T11:02:15;10.96;10.16;
62631;PMS5003;48703;51.248;-0.546;2023-04-29T11:05:17;11.59;10.66;
62631;PMS5003;48703;51.248;-0.546;2023-04-29T11:08:19;10.49;9.56;
62631;PMS5003;48703;51.248;-0.546;2023-04-29T11:11:20;10.70;10.01;
62631;PMS5003;48703;51.248;-0.546;2023-04-29T11:14:22;12.09;10.19;
62631;PMS5003;48703;51.248;-0.546;2023-04-29T11:17:23;14.51;10.87;
62631;PMS5003;48703;51.248;-0.546;2023-04-29T11:20:24;11.22;11.09;
62631;PMS5003;48703;51.248;-0.546;2023-04-29T11:23:26;13.16;12.25;
62631;PMS5003;48703;51.248;-0.546;2023-04-29T11:26:27;11.99;11.09;
62631;PMS5003;48703;51.248;-0.546;2023-04-29T11:29:29;12.77;12.00;
62631;PMS5003;48703;51.248;-0.546;2023-04-29T11:32:30;13.51;12.41;
62631;PMS5003;48703;51.248;-0.546;2023-04-29T11:35:31;12.13;10.96;
62631;PMS5003;48703;51.248;-0.546;2023-04-29T11:38:33;10.97;10.16;
62631;PMS5003;48703;51.248;-0.546;2023-04-29T11:41:34;9.76;9.27;
62631;PMS5003;48703;51.248;-0.546;2023-04-29T11:44:35;14.27;11.81;
62631;PMS5003;48703;51.248;-0.546;2023-04-29T11:47:41;12.00;10.94;
62631;PMS5003;48703;51.248;-0.546;2023-04-29T11:50:40;10.33;10.11;
62631;PMS5003;48703;51.248;-0.546;2023-04-29T11:53:40;13.06;11.81;
62631;PMS5003;48703;51.248;-0.546;2023-04-29T11:56:41;11.00;10.16;
62631;PMS5003;48703;51.248;-0.546;2023-04-29T11:59:43;10.61;9.63;
62631;PMS5003;48703;51.248;-0.546;2023-04-29T12:02:44;9.71;8.99;
62631;PMS5003;48703;51.248;-0.546;2023-04-29T12:05:46;11.63;8.70;
62631;PMS5003;48703;51.248;-0.546;2023-04-29T12:08:47;10.12;9.64;
62631;PMS5003;48703;51.248;-0.546;2023-04-29T12:11:48;9.44;9.03;
62631;PMS5003;48703;51.248;-0.546;2023-04-29T12:14:50;8.97;8.40;
62631;PMS5003;48703;51.248;-0.546;2023-04-29T12:17:51;12.01;10.63;
62631;PMS5003;48703;51.248;-0.546;2023-04-29T12:20:53;12.52;11.96;
62631;PMS5003;48703;51.248;-0.546;2023-04-29T12:23:57;10.40;9.76;
62631;PMS5003;48703;51.248;-0.546;2023-04-29T12:26:54;13.17;12.03;
62631;PMS5003;48703;51.248;-0.546;2023-04-29T12:29:56;13.10;10.87;
62631;PMS5003;48703;51.248;-0.546;2023-04-29T12:32:57;10.96;10.56;
62631;PMS5003;48703;51.248;-0.546;2023-04-29T12:35:59;9.23;8.69;
62631;PMS5003;48703;51.248;-0.546;2023-04-29T12:39:00;7.94;7.50;
62631;PMS5003;48703;51.248;-0.546;2023-04-29T12:42:02;10.13;9.07;
62631;PMS5003;48703;51.248;-0.546;2023-04-29T12:45:04;10.19;9.49;
62631;PMS5003;48703;51.248;-0.546;2023-04-29T12:48:05;8.57;7.89;
62631;PMS5003;48703;51.248;-0.546;2023-04-29T12:51:07;9.43;9.19;
62631;PMS5003;48703;51.248;-0.546;2023-04-29T12:54:07;9.54;7.57;
62631;PMS5003;48703;51.248;-0.546;2023-04-29T12:57:09;9.26;8.79;
62631;PMS5003;48703;51.248;-0.546;2023-04-29T13:00:11;8.59;7.59;
62631;PMS5003;48703;51.248;-0.546;2023-04-29T13:03:12;7.86;6.99;
62631;PMS5003;48703;51.248;-0.546;2023-04-29T13:06:14;9.11;8.73;
62631;PMS5003;48703;51.248;-0.546;2023-04-29T13:09:15;8.24;7.37;
62631;PMS5003;48703;51.248;-0.546;2023-04-29T13:12:17;10.06;8.50;
62631;PMS5003;48703;51.248;-0.546;2023-04-29T13:15:18;8.16;7.57;
62631;PMS5003;48703;51.248;-0.546;2023-04-29T13:18:20;6.66;6.66;
62631;PMS5003;48703;51.248;-0.546;2023-04-29T13:21:21;9.53;8.31;
62631;PMS5003;48703;51.248;-0.546;2023-04-29T13:24:23;8.33;7.26;
62631;PMS5003;48703;51.248;-0.546;2023-04-29T13:27:24;8.11;8.03;
62631;PMS5003;48703;51.248;-0.546;2023-04-29T13:30:25;8.71;7.94;
62631;PMS5003;48703;51.248;-0.546;2023-04-29T13:33:27;8.56;7.86;
62631;PMS5003;48703;51.248;-0.546;2023-04-29T13:36:28;8.84;7.86;
62631;PMS5003;48703;51.248;-0.546;2023-04-29T13:39:30;9.54;8.46;
62631;PMS5003;48703;51.248;-0.546;2023-04-29T13:42:31;8.49;7.87;
62631;PMS5003;48703;51.248;-0.546;2023-04-29T13:45:33;7.94;7.39;
62631;PMS5003;48703;51.248;-0.546;2023-04-29T13:48:34;7.96;7.10;
62631;PMS5003;48703;51.248;-0.546;2023-04-29T13:51:35;8.94;7.96;
62631;PMS5003;48703;51.248;-0.546;2023-04-29T13:54:37;8.81;8.56;
62631;PMS5003;48703;51.248;-0.546;2023-04-29T13:57:38;8.71;7.69;
62631;PMS5003;48703;51.248;-0.546;2023-04-29T14:00:40;10.29;8.61;
62631;PMS5003;48703;51.248;-0.546;2023-04-29T14:03:41;9.17;7.44;
62631;PMS5003;48703;51.248;-0.546;2023-04-29T14:06:43;8.73;7.61;
62631;PMS5003;48703;51.248;-0.546;2023-04-29T14:09:44;8.21;7.17;
62631;PMS5003;48703;51.248;-0.546;2023-04-29T14:12:46;7.07;6.49;
62631;PMS5003;48703;51.248;-0.546;2023-04-29T14:15:47;7.56;7.00;
62631;PMS5003;48703;51.248;-0.546;2023-04-29T14:18:49;7.53;6.47;
62631;PMS5003;48703;51.248;-0.546;2023-04-29T14:21:50;7.63;7.33;
62631;PMS5003;48703;51.248;-0.546;2023-04-29T14:24:52;8.39;8.04;
62631;PMS5003;48703;51.248;-0.546;2023-04-29T14:27:53;7.04;7.04;
62631;PMS5003;48703;51.248;-0.546;2023-04-29T14:30:55;7.21;7.21;
62631;PMS5003;48703;51.248;-0.546;2023-04-29T14:33:56;8.80;7.90;
62631;PMS5003;48703;51.248;-0.546;2023-04-29T14:36:58;11.01;8.24;
62631;PMS5003;48703;51.248;-0.546;2023-04-29T14:39:59;7.76;7.14;
62631;PMS5003;48703;51.248;-0.546;2023-04-29T14:43:01;8.07;7.47;
62631;PMS5003;48703;51.248;-0.546;2023-04-29T14:46:02;7.99;7.60;
62631;PMS5003;48703;51.248;-0.546;2023-04-29T14:49:04;8.43;7.66;
62631;PMS5003;48703;51.248;-0.546;2023-04-29T14:52:05;7.26;7.26;
62631;PMS5003;48703;51.248;-0.546;2023-04-29T14:55:06;8.86;7.20;
62631;PMS5003;48703;51.248;-0.546;2023-04-29T14:58:08;9.06;8.56;
62631;PMS5003;48703;51.248;-0.546;2023-04-29T15:01:09;8.31;8.19;
62631;PMS5003;48703;51.248;-0.546;2023-04-29T15:04:11;9.23;8.44;
62631;PMS5003;48703;51.248;-0.546;2023-04-29T15:07:13;7.89;7.73;
62631;PMS5003;48703;51.248;-0.546;2023-04-29T15:10:14;8.37;7.77;
62631;PMS5003;48703;51.248;-0.546;2023-04-29T15:13:15;7.86;7.86;
62631;PMS5003;48703;51.248;-0.546;2023-04-29T15:16:17;8.24;7.99;
62631;PMS5003;48703;51.248;-0.546;2023-04-29T15:19:18;7.61;6.37;
62631;PMS5003;48703;51.248;-0.546;2023-04-29T15:22:20;7.41;6.69;
62631;PMS5003;48703;51.248;-0.546;2023-04-29T15:25:21;7.87;6.74;
62631;PMS5003;48703;51.248;-0.546;2023-04-29T15:28:23;8.80;7.60;
62631;PMS5003;48703;51.248;-0.546;2023-04-29T15:31:24;6.47;6.47;
62631;PMS5003;48703;51.248;-0.546;2023-04-29T15:34:25;8.37;7.27;
62631;PMS5003;48703;51.248;-0.546;2023-04-29T15:37:27;9.96;9.27;
62631;PMS5003;48703;51.248;-0.546;2023-04-29T15:40:28;7.84;7.33;
62631;PMS5003;48703;51.248;-0.546;2023-04-29T15:43:30;7.11;7.03;
62631;PMS5003;48703;51.248;-0.546;2023-04-29T15:46:31;8.14;7.03;
62631;PMS5003;48703;51.248;-0.546;2023-04-29T15:49:33;8.40;7.50;
62631;PMS5003;48703;51.248;-0.546;2023-04-29T15:52:34;6.46;6.46;
62631;PMS5003;48703;51.248;-0.546;2023-04-29T15:55:36;8.47;7.04;
62631;PMS5003;48703;51.248;-0.546;2023-04-29T15:58:37;7.04;6.50;
62631;PMS5003;48703;51.248;-0.546;2023-04-29T16:01:39;5.80;5.59;
62631;PMS5003;48703;51.248;-0.546;2023-04-29T16:04:40;6.56;5.91;
62631;PMS5003;48703;51.248;-0.546;2023-04-29T16:07:42;7.29;5.99;
62631;PMS5003;48703;51.248;-0.546;2023-04-29T16:10:43;8.13;6.99;
62631;PMS5003;48703;51.248;-0.546;2023-04-29T16:13:45;6.56;5.71;
62631;PMS5003;48703;51.248;-0.546;2023-04-29T16:16:46;6.13;6.00;
62631;PMS5003;48703;51.248;-0.546;2023-04-29T16:19:48;7.04;7.04;
62631;PMS5003;48703;51.248;-0.546;2023-04-29T16:22:49;5.06;5.01;
62631;PMS5003;48703;51.248;-0.546;2023-04-29T16:25:51;4.76;4.41;
62631;PMS5003;48703;51.248;-0.546;2023-04-29T16:28:52;6.41;5.86;
62631;PMS5003;48703;51.248;-0.546;2023-04-29T16:31:54;7.36;6.40;
62631;PMS5003;48703;51.248;-0.546;2023-04-29T16:34:55;7.83;6.80;
62631;PMS5003;48703;51.248;-0.546;2023-04-29T16:37:56;6.31;6.09;
62631;PMS5003;48703;51.248;-0.546;2023-04-29T16:40:58;6.90;6.34;
62631;PMS5003;48703;51.248;-0.546;2023-04-29T16:43:59;6.57;6.14;
62631;PMS5003;48703;51.248;-0.546;2023-04-29T16:47:01;7.64;6.83;
62631;PMS5003;48703;51.248;-0.546;2023-04-29T16:50:03;6.64;6.56;
62631;PMS5003;48703;51.248;-0.546;2023-04-29T16:53:04;6.36;6.36;
62631;PMS5003;48703;51.248;-0.546;2023-04-29T16:56:05;8.46;6.53;
62631;PMS5003;48703;51.248;-0.546;2023-04-29T16:59:07;8.26;6.74;
62631;PMS5003;48703;51.248;-0.546;2023-04-29T17:02:08;6.46;5.94;
62631;PMS5003;48703;51.248;-0.546;2023-04-29T17:05:10;8.34;8.00;
62631;PMS5003;48703;51.248;-0.546;2023-04-29T17:08:11;8.14;7.53;
62631;PMS5003;48703;51.248;-0.546;2023-04-29T17:11:13;9.89;9.07;
62631;PMS5003;48703;51.248;-0.546;2023-04-29T17:14:14;13.03;12.09;
62631;PMS5003;48703;51.248;-0.546;2023-04-29T17:17:16;13.19;11.44;
62631;PMS5003;48703;51.248;-0.546;2023-04-29T17:20:18;12.37;11.37;
62631;PMS5003;48703;51.248;-0.546;2023-04-29T17:23:19;14.94;14.41;
62631;PMS5003;48703;51.248;-0.546;2023-04-29T17:26:20;12.87;11.83;
62631;PMS5003;48703;51.248;-0.546;2023-04-29T17:29:22;14.13;12.51;
62631;PMS5003;48703;51.248;-0.546;2023-04-29T17:32:24;14.16;13.21;
62631;PMS5003;48703;51.248;-0.546;2023-04-29T17:35:25;12.87;12.74;
62631;PMS5003;48703;51.248;-0.546;2023-04-29T17:38:26;15.37;12.67;
62631;PMS5003;48703;51.248;-0.546;2023-04-29T17:41:28;15.24;13.71;
62631;PMS5003;48703;51.248;-0.546;2023-04-29T17:44:29;17.96;15.41;
62631;PMS5003;48703;51.248;-0.546;2023-04-29T17:47:31;18.36;17.20;
62631;PMS5003;48703;51.248;-0.546;2023-04-29T17:50:32;17.66;16.01;
62631;PMS5003;48703;51.248;-0.546;2023-04-29T17:53:33;17.73;17.30;
62631;PMS5003;48703;51.248;-0.546;2023-04-29T17:56:34;16.14;15.13;
62631;PMS5003;48703;51.248;-0.546;2023-04-29T17:59:35;19.16;14.74;
62631;PMS5003;48703;51.248;-0.546;2023-04-29T18:02:36;17.01;15.33;
62631;PMS5003;48703;51.248;-0.546;2023-04-29T18:05:38;18.11;15.54;
62631;PMS5003;48703;51.248;-0.546;2023-04-29T18:08:39;17.66;15.60;